sensor_id;sensor_type;location;lat;lon;timestamp;P1;durP1;ratioP1;P2;durP2;ratioP2
18320;SDS011;54904;54.350;18.664;2024-03-02T00:00:29;36.03;;;17.17;;
18320;SDS011;54904;54.350;18.664;2024-03-02T00:02:56;29.33;;;16.80;;
18320;SDS011;54904;54.350;18.664;2024-03-02T00:05:23;28.70;;;15.87;;
18320;SDS011;54904;54.350;18.664;2024-03-02T00:07:52;26.83;;;15.53;;
18320;SDS011;54904;54.350;18.664;2024-03-02T00:10:21;30.20;;;16.20;;
18320;SDS011;54904;54.350;18.664;2024-03-02T00:12:54;31.03;;;16.47;;
18320;SDS011;54904;54.350;18.664;2024-03-02T00:15:30;34.73;;;17.60;;
18320;SDS011;54904;54.350;18.664;2024-03-02T00:18:10;35.70;;;18.20;;
18320;SDS011;54904;54.350;18.664;2024-03-02T00:20:39;32.90;;;19.10;;
18320;SDS011;54904;54.350;18.664;2024-03-02T00:23:07;31.33;;;18.20;;
18320;SDS011;54904;54.350;18.664;2024-03-02T00:25:39;37.80;;;18.97;;
18320;SDS011;54904;54.350;18.664;2024-03-02T00:28:13;32.23;;;17.40;;
18320;SDS011;54904;54.350;18.664;2024-03-02T00:30:56;27.43;;;16.20;;
18320;SDS011;54904;54.350;18.664;2024-03-02T00:33:26;31.47;;;15.97;;
18320;SDS011;54904;54.350;18.664;2024-03-02T00:35:56;36.43;;;18.43;;
18320;SDS011;54904;54.350;18.664;2024-03-02T00:38:25;34.27;;;17.60;;
18320;SDS011;54904;54.350;18.664;2024-03-02T00:40:52;31.33;;;16.57;;
18320;SDS011;54904;54.350;18.664;2024-03-02T00:46:16;32.93;;;16.73;;
18320;SDS011;54904;54.350;18.664;2024-03-02T00:48:48;29.60;;;15.40;;
18320;SDS011;54904;54.350;18.664;2024-03-02T00:51:19;28.43;;;15.27;;
18320;SDS011;54904;54.350;18.664;2024-03-02T00:53:47;27.47;;;14.63;;
18320;SDS011;54904;54.350;18.664;2024-03-02T00:56:16;30.70;;;17.07;;
18320;SDS011;54904;54.350;18.664;2024-03-02T00:58:43;31.33;;;16.40;;
18320;SDS011;54904;54.350;18.664;2024-03-02T01:01:10;33.27;;;16.83;;
18320;SDS011;54904;54.350;18.664;2024-03-02T01:03:39;28.60;;;15.63;;
18320;SDS011;54904;54.350;18.664;2024-03-02T01:06:07;30.00;;;15.60;;
18320;SDS011;54904;54.350;18.664;2024-03-02T01:08:34;40.70;;;18.57;;
18320;SDS011;54904;54.350;18.664;2024-03-02T01:11:02;40.97;;;19.33;;
18320;SDS011;54904;54.350;18.664;2024-03-02T01:13:30;41.27;;;19.53;;
18320;SDS011;54904;54.350;18.664;2024-03-02T01:15:57;35.73;;;18.63;;
18320;SDS011;54904;54.350;18.664;2024-03-02T01:18:25;31.63;;;16.83;;
18320;SDS011;54904;54.350;18.664;2024-03-02T01:20:54;28.50;;;14.63;;
18320;SDS011;54904;54.350;18.664;2024-03-02T01:23:21;25.73;;;13.70;;
18320;SDS011;54904;54.350;18.664;2024-03-02T01:25:48;24.30;;;13.87;;
18320;SDS011;54904;54.350;18.664;2024-03-02T01:28:16;28.87;;;15.10;;
18320;SDS011;54904;54.350;18.664;2024-03-02T01:30:43;23.40;;;14.63;;
18320;SDS011;54904;54.350;18.664;2024-03-02T01:33:11;28.53;;;15.40;;
18320;SDS011;54904;54.350;18.664;2024-03-02T01:35:38;23.23;;;13.80;;
18320;SDS011;54904;54.350;18.664;2024-03-02T01:38:06;25.37;;;15.00;;
18320;SDS011;54904;54.350;18.664;2024-03-02T01:40:34;24.83;;;14.60;;
18320;SDS011;54904;54.350;18.664;2024-03-02T01:43:01;19.93;;;12.47;;
18320;SDS011;54904;54.350;18.664;2024-03-02T01:45:28;22.37;;;12.27;;
18320;SDS011;54904;54.350;18.664;2024-03-02T01:47:56;24.37;;;12.50;;
18320;SDS011;54904;54.350;18.664;2024-03-02T01:50:26;26.50;;;14.73;;
18320;SDS011;54904;54.350;18.664;2024-03-02T01:52:54;19.23;;;12.03;;
18320;SDS011;54904;54.350;18.664;2024-03-02T01:55:23;21.43;;;11.90;;
18320;SDS011;54904;54.350;18.664;2024-03-02T01:57:51;22.27;;;13.57;;
18320;SDS011;54904;54.350;18.664;2024-03-02T02:00:19;20.67;;;12.60;;
18320;SDS011;54904;54.350;18.664;2024-03-02T02:02:47;23.47;;;13.07;;
18320;SDS011;54904;54.350;18.664;2024-03-02T02:05:15;24.23;;;14.30;;
18320;SDS011;54904;54.350;18.664;2024-03-02T02:07:42;26.33;;;15.00;;
18320;SDS011;54904;54.350;18.664;2024-03-02T02:10:10;22.77;;;13.20;;
18320;SDS011;54904;54.350;18.664;2024-03-02T02:12:39;21.57;;;12.70;;
18320;SDS011;54904;54.350;18.664;2024-03-02T02:15:21;20.73;;;12.30;;
18320;SDS011;54904;54.350;18.664;2024-03-02T02:17:49;20.87;;;12.30;;
18320;SDS011;54904;54.350;18.664;2024-03-02T02:20:16;21.97;;;12.47;;
18320;SDS011;54904;54.350;18.664;2024-03-02T02:22:58;25.07;;;13.70;;
18320;SDS011;54904;54.350;18.664;2024-03-02T02:25:26;29.37;;;16.47;;
18320;SDS011;54904;54.350;18.664;2024-03-02T02:27:53;29.07;;;15.87;;
18320;SDS011;54904;54.350;18.664;2024-03-02T02:30:21;28.40;;;15.67;;
18320;SDS011;54904;54.350;18.664;2024-03-02T02:32:50;30.57;;;17.17;;
18320;SDS011;54904;54.350;18.664;2024-03-02T02:35:16;26.97;;;15.50;;
18320;SDS011;54904;54.350;18.664;2024-03-02T02:37:43;26.33;;;15.67;;
18320;SDS011;54904;54.350;18.664;2024-03-02T02:40:13;33.43;;;16.97;;
18320;SDS011;54904;54.350;18.664;2024-03-02T02:42:40;26.37;;;15.07;;
18320;SDS011;54904;54.350;18.664;2024-03-02T02:45:08;28.30;;;16.30;;
18320;SDS011;54904;54.350;18.664;2024-03-02T02:47:36;29.37;;;16.37;;
18320;SDS011;54904;54.350;18.664;2024-03-02T02:50:03;29.97;;;16.77;;
18320;SDS011;54904;54.350;18.664;2024-03-02T02:52:34;29.80;;;16.33;;
18320;SDS011;54904;54.350;18.664;2024-03-02T02:55:03;26.00;;;15.47;;
18320;SDS011;54904;54.350;18.664;2024-03-02T02:57:33;26.00;;;15.83;;
18320;SDS011;54904;54.350;18.664;2024-03-02T03:00:03;22.30;;;14.07;;
18320;SDS011;54904;54.350;18.664;2024-03-02T03:02:36;29.93;;;16.33;;
18320;SDS011;54904;54.350;18.664;2024-03-02T03:05:04;32.13;;;16.90;;
18320;SDS011;54904;54.350;18.664;2024-03-02T03:07:32;25.27;;;14.83;;
18320;SDS011;54904;54.350;18.664;2024-03-02T03:10:00;24.10;;;14.73;;
18320;SDS011;54904;54.350;18.664;2024-03-02T03:12:28;28.93;;;15.87;;
18320;SDS011;54904;54.350;18.664;2024-03-02T03:14:57;30.33;;;16.97;;
18320;SDS011;54904;54.350;18.664;2024-03-02T03:17:25;30.47;;;16.97;;
18320;SDS011;54904;54.350;18.664;2024-03-02T03:19:52;32.20;;;17.90;;
18320;SDS011;54904;54.350;18.664;2024-03-02T03:22:20;24.57;;;14.80;;
18320;SDS011;54904;54.350;18.664;2024-03-02T03:24:47;27.30;;;15.13;;
18320;SDS011;54904;54.350;18.664;2024-03-02T03:27:14;28.90;;;15.40;;
18320;SDS011;54904;54.350;18.664;2024-03-02T03:29:41;26.50;;;15.33;;
18320;SDS011;54904;54.350;18.664;2024-03-02T03:32:10;32.93;;;17.40;;
18320;SDS011;54904;54.350;18.664;2024-03-02T03:34:37;33.67;;;16.97;;
18320;SDS011;54904;54.350;18.664;2024-03-02T03:37:04;30.80;;;17.27;;
18320;SDS011;54904;54.350;18.664;2024-03-02T03:39:32;28.60;;;15.77;;
18320;SDS011;54904;54.350;18.664;2024-03-02T03:42:01;25.83;;;14.83;;
18320;SDS011;54904;54.350;18.664;2024-03-02T03:44:28;25.87;;;14.97;;
18320;SDS011;54904;54.350;18.664;2024-03-02T03:46:55;21.83;;;12.67;;
18320;SDS011;54904;54.350;18.664;2024-03-02T03:49:24;21.23;;;12.37;;
18320;SDS011;54904;54.350;18.664;2024-03-02T03:51:51;19.17;;;11.20;;
18320;SDS011;54904;54.350;18.664;2024-03-02T03:54:18;27.27;;;13.67;;
18320;SDS011;54904;54.350;18.664;2024-03-02T03:56:45;22.47;;;13.70;;
18320;SDS011;54904;54.350;18.664;2024-03-02T03:59:12;26.13;;;14.07;;
18320;SDS011;54904;54.350;18.664;2024-03-02T04:01:39;25.07;;;14.33;;
18320;SDS011;54904;54.350;18.664;2024-03-02T04:04:06;20.03;;;12.67;;
18320;SDS011;54904;54.350;18.664;2024-03-02T04:06:35;27.53;;;16.33;;
18320;SDS011;54904;54.350;18.664;2024-03-02T04:09:02;27.90;;;15.40;;
18320;SDS011;54904;54.350;18.664;2024-03-02T04:11:29;26.23;;;15.33;;
18320;SDS011;54904;54.350;18.664;2024-03-02T04:13:57;27.40;;;17.00;;
18320;SDS011;54904;54.350;18.664;2024-03-02T04:16:24;27.73;;;15.70;;
18320;SDS011;54904;54.350;18.664;2024-03-02T04:18:51;26.17;;;15.43;;
18320;SDS011;54904;54.350;18.664;2024-03-02T04:21:18;28.97;;;16.07;;
18320;SDS011;54904;54.350;18.664;2024-03-02T04:23:47;28.43;;;16.60;;
18320;SDS011;54904;54.350;18.664;2024-03-02T04:26:14;27.80;;;15.57;;
18320;SDS011;54904;54.350;18.664;2024-03-02T04:28:45;31.13;;;16.47;;
18320;SDS011;54904;54.350;18.664;2024-03-02T04:31:12;34.20;;;16.67;;
18320;SDS011;54904;54.350;18.664;2024-03-02T04:33:39;27.87;;;15.03;;
18320;SDS011;54904;54.350;18.664;2024-03-02T04:36:06;31.33;;;16.50;;
18320;SDS011;54904;54.350;18.664;2024-03-02T04:38:34;26.17;;;14.87;;
18320;SDS011;54904;54.350;18.664;2024-03-02T04:41:03;23.07;;;13.07;;
18320;SDS011;54904;54.350;18.664;2024-03-02T04:43:31;27.70;;;14.20;;
18320;SDS011;54904;54.350;18.664;2024-03-02T04:45:58;27.97;;;15.57;;
18320;SDS011;54904;54.350;18.664;2024-03-02T04:48:25;28.07;;;15.93;;
18320;SDS011;54904;54.350;18.664;2024-03-02T04:50:53;33.67;;;16.83;;
18320;SDS011;54904;54.350;18.664;2024-03-02T04:53:20;31.30;;;16.83;;
18320;SDS011;54904;54.350;18.664;2024-03-02T04:55:47;28.97;;;15.53;;
18320;SDS011;54904;54.350;18.664;2024-03-02T04:58:33;26.70;;;15.30;;
18320;SDS011;54904;54.350;18.664;2024-03-02T05:01:00;27.70;;;14.97;;
18320;SDS011;54904;54.350;18.664;2024-03-02T05:03:27;23.63;;;13.27;;
18320;SDS011;54904;54.350;18.664;2024-03-02T05:05:54;21.03;;;12.67;;
18320;SDS011;54904;54.350;18.664;2024-03-02T05:08:21;21.60;;;12.60;;
18320;SDS011;54904;54.350;18.664;2024-03-02T05:10:48;28.40;;;15.43;;
18320;SDS011;54904;54.350;18.664;2024-03-02T05:13:15;21.43;;;12.40;;
18320;SDS011;54904;54.350;18.664;2024-03-02T05:15:44;27.60;;;15.17;;
18320;SDS011;54904;54.350;18.664;2024-03-02T05:18:12;21.30;;;13.50;;
18320;SDS011;54904;54.350;18.664;2024-03-02T05:20:39;25.40;;;13.43;;
18320;SDS011;54904;54.350;18.664;2024-03-02T05:23:06;30.17;;;16.83;;
18320;SDS011;54904;54.350;18.664;2024-03-02T05:25:33;24.80;;;14.73;;
18320;SDS011;54904;54.350;18.664;2024-03-02T05:28:00;20.97;;;12.93;;
18320;SDS011;54904;54.350;18.664;2024-03-02T05:30:27;22.80;;;13.20;;
18320;SDS011;54904;54.350;18.664;2024-03-02T05:32:56;24.17;;;13.10;;
18320;SDS011;54904;54.350;18.664;2024-03-02T05:35:23;25.00;;;14.20;;
18320;SDS011;54904;54.350;18.664;2024-03-02T05:37:50;21.13;;;12.13;;
18320;SDS011;54904;54.350;18.664;2024-03-02T05:40:17;20.50;;;12.70;;
18320;SDS011;54904;54.350;18.664;2024-03-02T05:42:44;16.10;;;10.23;;
18320;SDS011;54904;54.350;18.664;2024-03-02T05:45:12;16.63;;;10.03;;
18320;SDS011;54904;54.350;18.664;2024-03-02T05:47:38;26.27;;;14.53;;
18320;SDS011;54904;54.350;18.664;2024-03-02T05:50:07;27.27;;;15.27;;
18320;SDS011;54904;54.350;18.664;2024-03-02T05:52:35;22.00;;;13.33;;
18320;SDS011;54904;54.350;18.664;2024-03-02T05:55:02;25.50;;;15.00;;
18320;SDS011;54904;54.350;18.664;2024-03-02T05:57:30;24.30;;;14.73;;
18320;SDS011;54904;54.350;18.664;2024-03-02T06:00:13;23.40;;;13.80;;
18320;SDS011;54904;54.350;18.664;2024-03-02T06:02:42;25.60;;;14.63;;
18320;SDS011;54904;54.350;18.664;2024-03-02T06:05:10;29.20;;;16.57;;
18320;SDS011;54904;54.350;18.664;2024-03-02T06:07:38;29.03;;;15.47;;
18320;SDS011;54904;54.350;18.664;2024-03-02T06:10:05;27.57;;;15.63;;
18320;SDS011;54904;54.350;18.664;2024-03-02T06:12:34;28.70;;;16.23;;
18320;SDS011;54904;54.350;18.664;2024-03-02T06:15:01;38.77;;;18.33;;
18320;SDS011;54904;54.350;18.664;2024-03-02T06:17:29;29.40;;;16.73;;
18320;SDS011;54904;54.350;18.664;2024-03-02T06:19:56;27.07;;;16.07;;
18320;SDS011;54904;54.350;18.664;2024-03-02T06:22:25;34.73;;;17.00;;
18320;SDS011;54904;54.350;18.664;2024-03-02T06:24:52;28.67;;;16.17;;
18320;SDS011;54904;54.350;18.664;2024-03-02T06:27:19;26.90;;;15.63;;
18320;SDS011;54904;54.350;18.664;2024-03-02T06:29:46;31.13;;;17.13;;
18320;SDS011;54904;54.350;18.664;2024-03-02T06:32:13;27.63;;;16.37;;
18320;SDS011;54904;54.350;18.664;2024-03-02T06:34:41;34.80;;;17.90;;
18320;SDS011;54904;54.350;18.664;2024-03-02T06:37:08;29.70;;;16.53;;
18320;SDS011;54904;54.350;18.664;2024-03-02T06:39:36;31.07;;;16.00;;
18320;SDS011;54904;54.350;18.664;2024-03-02T06:42:04;27.70;;;15.70;;
18320;SDS011;54904;54.350;18.664;2024-03-02T06:44:31;30.00;;;16.70;;
18320;SDS011;54904;54.350;18.664;2024-03-02T06:46:58;28.63;;;16.97;;
18320;SDS011;54904;54.350;18.664;2024-03-02T06:49:25;30.33;;;15.97;;
18320;SDS011;54904;54.350;18.664;2024-03-02T06:51:52;29.80;;;15.23;;
18320;SDS011;54904;54.350;18.664;2024-03-02T06:54:19;32.57;;;18.93;;
18320;SDS011;54904;54.350;18.664;2024-03-02T06:56:47;35.03;;;19.43;;
18320;SDS011;54904;54.350;18.664;2024-03-02T06:59:15;29.53;;;16.67;;
18320;SDS011;54904;54.350;18.664;2024-03-02T07:01:42;29.03;;;16.00;;
18320;SDS011;54904;54.350;18.664;2024-03-02T07:04:09;33.60;;;19.27;;
18320;SDS011;54904;54.350;18.664;2024-03-02T07:06:36;33.07;;;17.30;;
18320;SDS011;54904;54.350;18.664;2024-03-02T07:09:03;31.83;;;17.83;;
18320;SDS011;54904;54.350;18.664;2024-03-02T07:11:32;42.90;;;21.53;;
18320;SDS011;54904;54.350;18.664;2024-03-02T07:14:01;35.67;;;19.03;;
18320;SDS011;54904;54.350;18.664;2024-03-02T07:16:29;36.70;;;19.83;;
18320;SDS011;54904;54.350;18.664;2024-03-02T07:18:58;37.33;;;19.50;;
18320;SDS011;54904;54.350;18.664;2024-03-02T07:21:27;39.83;;;22.27;;
18320;SDS011;54904;54.350;18.664;2024-03-02T07:23:54;35.37;;;19.57;;
18320;SDS011;54904;54.350;18.664;2024-03-02T07:26:21;32.40;;;18.00;;
18320;SDS011;54904;54.350;18.664;2024-03-02T07:28:48;30.07;;;17.17;;
18320;SDS011;54904;54.350;18.664;2024-03-02T07:31:17;30.30;;;15.80;;
18320;SDS011;54904;54.350;18.664;2024-03-02T07:33:44;32.43;;;17.90;;
18320;SDS011;54904;54.350;18.664;2024-03-02T07:36:12;35.97;;;19.70;;
18320;SDS011;54904;54.350;18.664;2024-03-02T07:38:40;35.23;;;19.67;;
18320;SDS011;54904;54.350;18.664;2024-03-02T07:41:07;34.27;;;19.50;;
18320;SDS011;54904;54.350;18.664;2024-03-02T07:43:36;36.97;;;19.10;;
18320;SDS011;54904;54.350;18.664;2024-03-02T07:46:03;36.60;;;20.30;;
18320;SDS011;54904;54.350;18.664;2024-03-02T07:48:32;34.20;;;18.30;;
18320;SDS011;54904;54.350;18.664;2024-03-02T07:50:59;31.87;;;17.43;;
18320;SDS011;54904;54.350;18.664;2024-03-02T07:53:27;31.23;;;17.40;;
18320;SDS011;54904;54.350;18.664;2024-03-02T07:55:54;37.03;;;19.50;;
18320;SDS011;54904;54.350;18.664;2024-03-02T07:58:27;33.90;;;18.93;;
18320;SDS011;54904;54.350;18.664;2024-03-02T08:00:54;35.20;;;19.03;;
18320;SDS011;54904;54.350;18.664;2024-03-02T08:03:21;28.83;;;15.93;;
18320;SDS011;54904;54.350;18.664;2024-03-02T08:05:50;34.03;;;18.13;;
18320;SDS011;54904;54.350;18.664;2024-03-02T08:08:18;30.40;;;15.77;;
18320;SDS011;54904;54.350;18.664;2024-03-02T08:10:45;29.57;;;15.80;;
18320;SDS011;54904;54.350;18.664;2024-03-02T08:13:12;33.93;;;18.10;;
18320;SDS011;54904;54.350;18.664;2024-03-02T08:15:39;36.67;;;18.77;;
18320;SDS011;54904;54.350;18.664;2024-03-02T08:18:06;31.53;;;17.10;;
18320;SDS011;54904;54.350;18.664;2024-03-02T08:20:34;36.83;;;19.63;;
18320;SDS011;54904;54.350;18.664;2024-03-02T08:23:02;26.40;;;14.90;;
18320;SDS011;54904;54.350;18.664;2024-03-02T08:25:29;35.60;;;19.37;;
18320;SDS011;54904;54.350;18.664;2024-03-02T08:27:57;31.93;;;17.70;;
18320;SDS011;54904;54.350;18.664;2024-03-02T08:30:24;30.07;;;16.57;;
18320;SDS011;54904;54.350;18.664;2024-03-02T08:32:51;36.00;;;19.27;;
18320;SDS011;54904;54.350;18.664;2024-03-02T08:35:19;34.23;;;19.17;;
18320;SDS011;54904;54.350;18.664;2024-03-02T08:37:47;31.30;;;17.80;;
18320;SDS011;54904;54.350;18.664;2024-03-02T08:40:16;29.07;;;16.83;;
18320;SDS011;54904;54.350;18.664;2024-03-02T08:42:43;31.40;;;17.30;;
18320;SDS011;54904;54.350;18.664;2024-03-02T08:45:10;31.43;;;18.20;;
18320;SDS011;54904;54.350;18.664;2024-03-02T08:47:38;37.53;;;18.67;;
18320;SDS011;54904;54.350;18.664;2024-03-02T08:50:05;34.13;;;18.23;;
18320;SDS011;54904;54.350;18.664;2024-03-02T08:52:33;36.77;;;17.87;;
18320;SDS011;54904;54.350;18.664;2024-03-02T08:55:01;23.20;;;14.23;;
18320;SDS011;54904;54.350;18.664;2024-03-02T08:57:29;27.20;;;15.17;;
18320;SDS011;54904;54.350;18.664;2024-03-02T08:59:57;34.97;;;19.23;;
18320;SDS011;54904;54.350;18.664;2024-03-02T09:02:24;35.33;;;18.20;;
18320;SDS011;54904;54.350;18.664;2024-03-02T09:04:52;32.70;;;17.77;;
18320;SDS011;54904;54.350;18.664;2024-03-02T09:07:19;29.67;;;16.17;;
18320;SDS011;54904;54.350;18.664;2024-03-02T09:09:46;27.93;;;16.33;;
18320;SDS011;54904;54.350;18.664;2024-03-02T09:12:13;29.40;;;17.30;;
18320;SDS011;54904;54.350;18.664;2024-03-02T09:14:41;30.97;;;17.20;;
18320;SDS011;54904;54.350;18.664;2024-03-02T09:17:09;26.10;;;15.70;;
18320;SDS011;54904;54.350;18.664;2024-03-02T09:19:36;29.73;;;17.20;;
18320;SDS011;54904;54.350;18.664;2024-03-02T09:22:04;35.53;;;18.10;;
18320;SDS011;54904;54.350;18.664;2024-03-02T09:24:31;30.90;;;16.73;;
18320;SDS011;54904;54.350;18.664;2024-03-02T09:26:59;38.60;;;20.23;;
18320;SDS011;54904;54.350;18.664;2024-03-02T09:29:26;37.93;;;19.83;;
18320;SDS011;54904;54.350;18.664;2024-03-02T09:31:55;29.83;;;16.77;;
18320;SDS011;54904;54.350;18.664;2024-03-02T09:34:22;30.70;;;17.40;;
18320;SDS011;54904;54.350;18.664;2024-03-02T09:36:50;28.37;;;16.97;;
18320;SDS011;54904;54.350;18.664;2024-03-02T09:39:17;31.10;;;17.77;;
18320;SDS011;54904;54.350;18.664;2024-03-02T09:41:45;26.77;;;15.70;;
18320;SDS011;54904;54.350;18.664;2024-03-02T09:44:13;25.63;;;14.90;;
18320;SDS011;54904;54.350;18.664;2024-03-02T09:46:40;32.93;;;18.50;;
18320;SDS011;54904;54.350;18.664;2024-03-02T09:49:10;32.57;;;17.63;;
18320;SDS011;54904;54.350;18.664;2024-03-02T09:51:37;30.57;;;17.97;;
18320;SDS011;54904;54.350;18.664;2024-03-02T09:54:06;29.40;;;17.60;;
18320;SDS011;54904;54.350;18.664;2024-03-02T09:56:34;30.80;;;16.97;;
18320;SDS011;54904;54.350;18.664;2024-03-02T09:59:01;33.60;;;18.63;;
18320;SDS011;54904;54.350;18.664;2024-03-02T10:01:28;28.57;;;16.73;;
18320;SDS011;54904;54.350;18.664;2024-03-02T10:03:56;33.43;;;18.47;;
18320;SDS011;54904;54.350;18.664;2024-03-02T10:06:27;34.33;;;20.00;;
18320;SDS011;54904;54.350;18.664;2024-03-02T10:08:54;30.70;;;16.30;;
18320;SDS011;54904;54.350;18.664;2024-03-02T10:11:25;28.27;;;16.13;;
18320;SDS011;54904;54.350;18.664;2024-03-02T10:14:07;31.47;;;16.93;;
18320;SDS011;54904;54.350;18.664;2024-03-02T10:16:35;31.13;;;17.27;;
18320;SDS011;54904;54.350;18.664;2024-03-02T10:19:16;32.67;;;19.50;;
18320;SDS011;54904;54.350;18.664;2024-03-02T10:21:49;29.47;;;16.07;;
18320;SDS011;54904;54.350;18.664;2024-03-02T10:24:16;31.07;;;17.00;;
18320;SDS011;54904;54.350;18.664;2024-03-02T10:26:44;32.53;;;18.73;;
18320;SDS011;54904;54.350;18.664;2024-03-02T10:29:11;31.57;;;17.73;;
18320;SDS011;54904;54.350;18.664;2024-03-02T10:31:39;31.30;;;18.80;;
18320;SDS011;54904;54.350;18.664;2024-03-02T10:34:08;31.67;;;17.97;;
18320;SDS011;54904;54.350;18.664;2024-03-02T10:36:36;25.93;;;16.00;;
18320;SDS011;54904;54.350;18.664;2024-03-02T10:39:08;27.83;;;17.00;;
18320;SDS011;54904;54.350;18.664;2024-03-02T10:41:36;27.40;;;16.27;;
18320;SDS011;54904;54.350;18.664;2024-03-02T10:44:06;31.13;;;19.70;;
18320;SDS011;54904;54.350;18.664;2024-03-02T10:46:34;31.13;;;18.40;;
18320;SDS011;54904;54.350;18.664;2024-03-02T10:49:02;35.73;;;19.10;;
18320;SDS011;54904;54.350;18.664;2024-03-02T10:51:31;36.97;;;19.57;;
18320;SDS011;54904;54.350;18.664;2024-03-02T10:54:02;28.40;;;17.13;;
18320;SDS011;54904;54.350;18.664;2024-03-02T10:56:31;27.30;;;16.33;;
18320;SDS011;54904;54.350;18.664;2024-03-02T10:59:01;28.77;;;17.17;;
18320;SDS011;54904;54.350;18.664;2024-03-02T11:01:31;30.93;;;18.90;;
18320;SDS011;54904;54.350;18.664;2024-03-02T11:03:59;31.53;;;17.30;;
18320;SDS011;54904;54.350;18.664;2024-03-02T11:06:29;25.00;;;15.67;;
18320;SDS011;54904;54.350;18.664;2024-03-02T11:09:00;34.37;;;18.30;;
18320;SDS011;54904;54.350;18.664;2024-03-02T11:11:32;31.33;;;17.80;;
18320;SDS011;54904;54.350;18.664;2024-03-02T11:14:06;29.00;;;16.87;;
18320;SDS011;54904;54.350;18.664;2024-03-02T11:16:37;29.83;;;16.77;;
18320;SDS011;54904;54.350;18.664;2024-03-02T11:19:07;33.63;;;17.27;;
18320;SDS011;54904;54.350;18.664;2024-03-02T11:21:37;33.43;;;18.60;;
18320;SDS011;54904;54.350;18.664;2024-03-02T11:27:02;29.07;;;16.97;;
18320;SDS011;54904;54.350;18.664;2024-03-02T11:29:42;29.67;;;16.20;;
18320;SDS011;54904;54.350;18.664;2024-03-02T11:32:13;26.20;;;15.80;;
18320;SDS011;54904;54.350;18.664;2024-03-02T11:34:42;24.03;;;14.70;;
18320;SDS011;54904;54.350;18.664;2024-03-02T11:37:12;23.80;;;14.83;;
18320;SDS011;54904;54.350;18.664;2024-03-02T11:39:40;24.73;;;14.67;;
18320;SDS011;54904;54.350;18.664;2024-03-02T11:42:08;28.90;;;17.23;;
18320;SDS011;54904;54.350;18.664;2024-03-02T11:44:39;28.93;;;17.00;;
18320;SDS011;54904;54.350;18.664;2024-03-02T11:47:10;31.33;;;18.33;;
18320;SDS011;54904;54.350;18.664;2024-03-02T11:49:40;32.97;;;17.77;;
18320;SDS011;54904;54.350;18.664;2024-03-02T11:52:08;27.13;;;15.70;;
18320;SDS011;54904;54.350;18.664;2024-03-02T11:54:36;24.30;;;14.90;;
18320;SDS011;54904;54.350;18.664;2024-03-02T11:57:06;32.80;;;19.33;;
18320;SDS011;54904;54.350;18.664;2024-03-02T11:59:35;29.40;;;17.93;;
18320;SDS011;54904;54.350;18.664;2024-03-02T12:02:02;29.83;;;16.87;;
18320;SDS011;54904;54.350;18.664;2024-03-02T12:04:29;33.37;;;19.17;;
18320;SDS011;54904;54.350;18.664;2024-03-02T12:06:57;31.37;;;17.80;;
18320;SDS011;54904;54.350;18.664;2024-03-02T12:09:26;28.00;;;17.07;;
18320;SDS011;54904;54.350;18.664;2024-03-02T12:12:06;29.27;;;17.27;;
18320;SDS011;54904;54.350;18.664;2024-03-02T12:14:35;30.77;;;17.27;;
18320;SDS011;54904;54.350;18.664;2024-03-02T12:17:04;29.27;;;17.27;;
18320;SDS011;54904;54.350;18.664;2024-03-02T12:19:32;32.03;;;18.37;;
18320;SDS011;54904;54.350;18.664;2024-03-02T12:22:00;30.50;;;18.33;;
18320;SDS011;54904;54.350;18.664;2024-03-02T12:24:28;28.23;;;16.73;;
18320;SDS011;54904;54.350;18.664;2024-03-02T12:26:56;25.60;;;15.53;;
18320;SDS011;54904;54.350;18.664;2024-03-02T12:29:24;26.13;;;15.87;;
18320;SDS011;54904;54.350;18.664;2024-03-02T12:31:53;26.60;;;15.93;;
18320;SDS011;54904;54.350;18.664;2024-03-02T12:34:20;27.47;;;16.70;;
18320;SDS011;54904;54.350;18.664;2024-03-02T12:36:48;33.50;;;18.23;;
18320;SDS011;54904;54.350;18.664;2024-03-02T12:39:18;30.03;;;16.80;;
18320;SDS011;54904;54.350;18.664;2024-03-02T12:41:46;29.43;;;16.70;;
18320;SDS011;54904;54.350;18.664;2024-03-02T12:44:15;27.83;;;17.37;;
18320;SDS011;54904;54.350;18.664;2024-03-02T12:46:43;31.03;;;19.03;;
18320;SDS011;54904;54.350;18.664;2024-03-02T12:49:12;31.53;;;18.13;;
18320;SDS011;54904;54.350;18.664;2024-03-02T12:51:41;30.93;;;18.17;;
18320;SDS011;54904;54.350;18.664;2024-03-02T12:54:10;32.33;;;18.87;;
18320;SDS011;54904;54.350;18.664;2024-03-02T12:56:37;32.63;;;19.07;;
18320;SDS011;54904;54.350;18.664;2024-03-02T12:59:05;28.57;;;17.20;;
18320;SDS011;54904;54.350;18.664;2024-03-02T13:01:32;31.27;;;17.40;;
18320;SDS011;54904;54.350;18.664;2024-03-02T13:04:00;28.57;;;16.47;;
18320;SDS011;54904;54.350;18.664;2024-03-02T13:06:28;28.47;;;16.37;;
18320;SDS011;54904;54.350;18.664;2024-03-02T13:08:55;33.17;;;18.77;;
18320;SDS011;54904;54.350;18.664;2024-03-02T13:11:22;39.73;;;19.60;;
18320;SDS011;54904;54.350;18.664;2024-03-02T13:13:50;30.60;;;16.53;;
18320;SDS011;54904;54.350;18.664;2024-03-02T13:16:18;37.13;;;19.83;;
18320;SDS011;54904;54.350;18.664;2024-03-02T13:18:46;34.27;;;19.10;;
18320;SDS011;54904;54.350;18.664;2024-03-02T13:21:13;33.37;;;18.87;;
18320;SDS011;54904;54.350;18.664;2024-03-02T13:23:42;30.57;;;17.60;;
18320;SDS011;54904;54.350;18.664;2024-03-02T13:26:09;28.23;;;17.57;;
18320;SDS011;54904;54.350;18.664;2024-03-02T13:28:38;28.33;;;17.63;;
18320;SDS011;54904;54.350;18.664;2024-03-02T13:31:05;26.47;;;16.37;;
18320;SDS011;54904;54.350;18.664;2024-03-02T13:33:33;30.77;;;17.30;;
18320;SDS011;54904;54.350;18.664;2024-03-02T13:36:00;33.43;;;15.53;;
18320;SDS011;54904;54.350;18.664;2024-03-02T13:38:28;28.57;;;15.73;;
18320;SDS011;54904;54.350;18.664;2024-03-02T13:40:56;24.60;;;15.13;;
18320;SDS011;54904;54.350;18.664;2024-03-02T13:43:25;30.90;;;18.00;;
18320;SDS011;54904;54.350;18.664;2024-03-02T13:45:57;25.57;;;15.23;;
18320;SDS011;54904;54.350;18.664;2024-03-02T13:48:24;27.97;;;16.13;;
18320;SDS011;54904;54.350;18.664;2024-03-02T13:50:51;27.33;;;14.93;;
18320;SDS011;54904;54.350;18.664;2024-03-02T13:53:19;20.00;;;12.33;;
18320;SDS011;54904;54.350;18.664;2024-03-02T13:55:47;24.40;;;14.60;;
18320;SDS011;54904;54.350;18.664;2024-03-02T13:58:15;28.13;;;16.43;;
18320;SDS011;54904;54.350;18.664;2024-03-02T14:00:42;26.03;;;15.23;;
18320;SDS011;54904;54.350;18.664;2024-03-02T14:03:11;21.53;;;13.00;;
18320;SDS011;54904;54.350;18.664;2024-03-02T14:05:38;20.17;;;12.93;;
18320;SDS011;54904;54.350;18.664;2024-03-02T14:08:05;28.67;;;15.97;;
18320;SDS011;54904;54.350;18.664;2024-03-02T14:10:33;28.60;;;16.53;;
18320;SDS011;54904;54.350;18.664;2024-03-02T14:13:00;29.93;;;15.97;;
18320;SDS011;54904;54.350;18.664;2024-03-02T14:15:29;29.30;;;16.47;;
18320;SDS011;54904;54.350;18.664;2024-03-02T14:17:56;29.00;;;17.07;;
18320;SDS011;54904;54.350;18.664;2024-03-02T14:20:23;33.40;;;17.43;;